sensor_id;sensor_type;location;lat;lon;timestamp;P1;durP1;ratioP1;P2;durP2;ratioP2
12846;SDS011;6492;48.128;8.320;2022-07-23T02:26:45;9.53;;;8.60;;
12846;SDS011;6492;48.128;8.320;2022-07-23T06:03:58;8.55;;;7.80;;
12846;SDS011;6492;48.128;8.320;2022-07-23T06:08:00;8.65;;;7.70;;
12846;SDS011;6492;48.128;8.320;2022-07-23T06:12:02;8.20;;;7.50;;
12846;SDS011;6492;48.128;8.320;2022-07-23T06:16:04;8.48;;;7.78;;
12846;SDS011;6492;48.128;8.320;2022-07-23T06:20:09;8.20;;;7.50;;
12846;SDS011;6492;48.128;8.320;2022-07-23T06:24:11;7.53;;;6.82;;
12846;SDS011;6492;48.128;8.320;2022-07-23T06:28:24;8.18;;;7.38;;
12846;SDS011;6492;48.128;8.320;2022-07-23T06:32:26;8.57;;;7.78;;
12846;SDS011;6492;48.128;8.320;2022-07-23T06:36:29;7.38;;;6.75;;
12846;SDS011;6492;48.128;8.320;2022-07-23T06:40:39;8.95;;;8.15;;
12846;SDS011;6492;48.128;8.320;2022-07-23T06:44:41;7.57;;;6.97;;
12846;SDS011;6492;48.128;8.320;2022-07-23T06:48:42;8.57;;;7.88;;
12846;SDS011;6492;48.128;8.320;2022-07-23T06:52:46;7.57;;;7.03;;
12846;SDS011;6492;48.128;8.320;2022-07-23T06:56:47;7.93;;;7.22;;
12846;SDS011;6492;48.128;8.320;2022-07-23T07:00:49;8.05;;;7.45;;
12846;SDS011;6492;48.128;8.320;2022-07-23T07:04:52;8.05;;;7.35;;
12846;SDS011;6492;48.128;8.320;2022-07-23T07:08:55;8.00;;;7.40;;
12846;SDS011;6492;48.128;8.320;2022-07-23T07:17:30;7.75;;;7.05;;
12846;SDS011;6492;48.128;8.320;2022-07-23T07:21:47;7.75;;;7.10;;
12846;SDS011;6492;48.128;8.320;2022-07-23T07:25:51;7.72;;;7.07;;
12846;SDS011;6492;48.128;8.320;2022-07-23T07:29:53;6.90;;;6.38;;
12846;SDS011;6492;48.128;8.320;2022-07-23T07:33:59;6.93;;;6.35;;
12846;SDS011;6492;48.128;8.320;2022-07-23T07:38:01;7.53;;;7.03;;
12846;SDS011;6492;48.128;8.320;2022-07-23T07:42:07;7.72;;;7.10;;
12846;SDS011;6492;48.128;8.320;2022-07-23T07:46:10;7.75;;;7.05;;
12846;SDS011;6492;48.128;8.320;2022-07-23T07:50:12;8.00;;;7.40;;
12846;SDS011;6492;48.128;8.320;2022-07-23T07:54:15;8.40;;;7.63;;
12846;SDS011;6492;48.128;8.320;2022-07-23T07:58:18;8.20;;;7.50;;
12846;SDS011;6492;48.128;8.320;2022-07-23T08:02:21;7.82;;;7.22;;
12846;SDS011;6492;48.128;8.320;2022-07-23T08:06:23;8.60;;;7.90;;
12846;SDS011;6492;48.128;8.320;2022-07-23T08:10:27;8.20;;;7.50;;
12846;SDS011;6492;48.128;8.320;2022-07-23T08:14:32;8.25;;;7.45;;
12846;SDS011;6492;48.128;8.320;2022-07-23T08:18:34;8.13;;;7.32;;
12846;SDS011;6492;48.128;8.320;2022-07-23T08:22:43;8.05;;;7.35;;
12846;SDS011;6492;48.128;8.320;2022-07-23T08:26:45;8.65;;;7.82;;
12846;SDS011;6492;48.128;8.320;2022-07-23T08:35:31;7.88;;;7.18;;
12846;SDS011;6492;48.128;8.320;2022-07-23T08:39:34;8.55;;;7.85;;
12846;SDS011;6492;48.128;8.320;2022-07-23T08:43:36;7.82;;;7.22;;
12846;SDS011;6492;48.128;8.320;2022-07-23T08:47:39;8.45;;;7.68;;
12846;SDS011;6492;48.128;8.320;2022-07-23T08:51:51;8.77;;;7.97;;
12846;SDS011;6492;48.128;8.320;2022-07-23T08:55:56;8.20;;;7.38;;
12846;SDS011;6492;48.128;8.320;2022-07-23T09:00:05;7.95;;;7.22;;
12846;SDS011;6492;48.128;8.320;2022-07-23T09:08:15;8.65;;;7.45;;
12846;SDS011;6492;48.128;8.320;2022-07-23T09:12:24;8.27;;;7.63;;
12846;SDS011;6492;48.128;8.320;2022-07-23T09:16:30;8.80;;;8.10;;
12846;SDS011;6492;48.128;8.320;2022-07-23T09:20:34;8.93;;;8.23;;
12846;SDS011;6492;48.128;8.320;2022-07-23T09:24:43;8.18;;;7.47;;
12846;SDS011;6492;48.128;8.320;2022-07-23T09:29:05;8.30;;;7.60;;
12846;SDS011;6492;48.128;8.320;2022-07-23T09:33:09;8.05;;;7.38;;
12846;SDS011;6492;48.128;8.320;2022-07-23T09:37:14;7.13;;;6.53;;
12846;SDS011;6492;48.128;8.320;2022-07-23T09:41:17;8.40;;;7.60;;
12846;SDS011;6492;48.128;8.320;2022-07-23T09:45:19;7.90;;;7.20;;
12846;SDS011;6492;48.128;8.320;2022-07-23T09:49:21;7.90;;;7.13;;
12846;SDS011;6492;48.128;8.320;2022-07-23T09:53:26;7.68;;;7.18;;
12846;SDS011;6492;48.128;8.320;2022-07-23T09:57:28;7.93;;;7.32;;
12846;SDS011;6492;48.128;8.320;2022-07-23T10:01:30;8.10;;;7.50;;
12846;SDS011;6492;48.128;8.320;2022-07-23T10:05:33;7.70;;;7.10;;
12846;SDS011;6492;48.128;8.320;2022-07-23T10:09:38;7.78;;;7.18;;
12846;SDS011;6492;48.128;8.320;2022-07-23T10:13:43;8.13;;;7.45;;
12846;SDS011;6492;48.128;8.320;2022-07-23T10:17:54;9.20;;;8.30;;
12846;SDS011;6492;48.128;8.320;2022-07-23T10:21:57;8.77;;;8.07;;
12846;SDS011;6492;48.128;8.320;2022-07-23T10:26:05;8.05;;;7.35;;
12846;SDS011;6492;48.128;8.320;2022-07-23T10:30:16;8.73;;;8.02;;
12846;SDS011;6492;48.128;8.320;2022-07-23T10:34:25;8.57;;;7.88;;
12846;SDS011;6492;48.128;8.320;2022-07-23T10:38:37;8.85;;;8.10;;
12846;SDS011;6492;48.128;8.320;2022-07-23T10:43:08;7.55;;;6.95;;
12846;SDS011;6492;48.128;8.320;2022-07-23T10:47:21;8.35;;;7.63;;
12846;SDS011;6492;48.128;8.320;2022-07-23T10:56:02;9.55;;;8.57;;
12846;SDS011;6492;48.128;8.320;2022-07-23T11:00:15;9.15;;;8.35;;
12846;SDS011;6492;48.128;8.320;2022-07-23T11:04:24;8.85;;;8.05;;
12846;SDS011;6492;48.128;8.320;2022-07-23T11:08:52;8.43;;;7.72;;
12846;SDS011;6492;48.128;8.320;2022-07-23T11:13:25;9.02;;;8.32;;
12846;SDS011;6492;48.128;8.320;2022-07-23T11:17:59;8.80;;;8.07;;
12846;SDS011;6492;48.128;8.320;2022-07-23T11:22:01;8.80;;;7.90;;
12846;SDS011;6492;48.128;8.320;2022-07-23T11:26:04;9.32;;;8.45;;
12846;SDS011;6492;48.128;8.320;2022-07-23T11:30:06;9.27;;;8.38;;
12846;SDS011;6492;48.128;8.320;2022-07-23T11:38:37;9.02;;;8.23;;
12846;SDS011;6492;48.128;8.320;2022-07-23T11:42:50;8.85;;;8.23;;
12846;SDS011;6492;48.128;8.320;2022-07-23T11:46:54;8.75;;;8.02;;
12846;SDS011;6492;48.128;8.320;2022-07-23T11:50:58;9.48;;;8.68;;
12846;SDS011;6492;48.128;8.320;2022-07-23T11:55:01;9.60;;;8.80;;
12846;SDS011;6492;48.128;8.320;2022-07-23T11:59:05;8.82;;;8.02;;
12846;SDS011;6492;48.128;8.320;2022-07-23T12:03:07;9.00;;;8.30;;
12846;SDS011;6492;48.128;8.320;2022-07-23T12:07:26;8.77;;;8.05;;
12846;SDS011;6492;48.128;8.320;2022-07-23T12:11:29;9.27;;;8.35;;
12846;SDS011;6492;48.128;8.320;2022-07-23T12:15:31;9.23;;;8.43;;
12846;SDS011;6492;48.128;8.320;2022-07-23T12:19:37;8.70;;;7.88;;
12846;SDS011;6492;48.128;8.320;2022-07-23T12:23:41;8.93;;;8.23;;
12846;SDS011;6492;48.128;8.320;2022-07-23T12:27:43;8.45;;;7.75;;
12846;SDS011;6492;48.128;8.320;2022-07-23T12:31:46;9.02;;;8.15;;
12846;SDS011;6492;48.128;8.320;2022-07-23T12:35:48;8.48;;;7.78;;
12846;SDS011;6492;48.128;8.320;2022-07-23T12:39:51;8.45;;;7.82;;
12846;SDS011;6492;48.128;8.320;2022-07-23T12:43:53;8.55;;;7.85;;
12846;SDS011;6492;48.128;8.320;2022-07-23T12:47:57;8.98;;;8.27;;
12846;SDS011;6492;48.128;8.320;2022-07-23T12:52:11;8.48;;;7.78;;
12846;SDS011;6492;48.128;8.320;2022-07-23T12:56:19;8.18;;;7.57;;
12846;SDS011;6492;48.128;8.320;2022-07-23T13:00:21;9.30;;;8.60;;
12846;SDS011;6492;48.128;8.320;2022-07-23T13:04:39;8.73;;;8.02;;
12846;SDS011;6492;48.128;8.320;2022-07-23T13:08:40;8.93;;;8.15;;
12846;SDS011;6492;48.128;8.320;2022-07-23T13:12:44;8.25;;;7.60;;
12846;SDS011;6492;48.128;8.320;2022-07-23T13:16:46;8.70;;;7.78;;
12846;SDS011;6492;48.128;8.320;2022-07-23T13:20:48;8.73;;;8.02;;
12846;SDS011;6492;48.128;8.320;2022-07-23T13:24:50;9.18;;;8.45;;
12846;SDS011;6492;48.128;8.320;2022-07-23T13:28:54;8.20;;;7.50;;
12846;SDS011;6492;48.128;8.320;2022-07-23T13:32:55;8.48;;;7.80;;
12846;SDS011;6492;48.128;8.320;2022-07-23T13:36:57;8.80;;;8.10;;
12846;SDS011;6492;48.128;8.320;2022-07-23T13:40:59;8.50;;;7.72;;
12846;SDS011;6492;48.128;8.320;2022-07-23T13:45:05;9.00;;;8.32;;
12846;SDS011;6492;48.128;8.320;2022-07-23T13:49:07;9.00;;;8.30;;
12846;SDS011;6492;48.128;8.320;2022-07-23T13:53:10;9.23;;;8.43;;
12846;SDS011;6492;48.128;8.320;2022-07-23T13:57:13;8.48;;;7.88;;
12846;SDS011;6492;48.128;8.320;2022-07-23T14:01:17;8.82;;;8.02;;
12846;SDS011;6492;48.128;8.320;2022-07-23T14:05:19;8.70;;;8.02;;
12846;SDS011;6492;48.128;8.320;2022-07-23T14:09:21;8.77;;;8.07;;
12846;SDS011;6492;48.128;8.320;2022-07-23T14:13:24;8.95;;;8.27;;
12846;SDS011;6492;48.128;8.320;2022-07-23T14:17:27;9.13;;;8.43;;
12846;SDS011;6492;48.128;8.320;2022-07-23T14:21:29;9.02;;;8.32;;
12846;SDS011;6492;48.128;8.320;2022-07-23T14:25:31;9.05;;;8.25;;
12846;SDS011;6492;48.128;8.320;2022-07-23T14:29:33;8.95;;;8.05;;
12846;SDS011;6492;48.128;8.320;2022-07-23T14:33:36;9.10;;;8.40;;
12846;SDS011;6492;48.128;8.320;2022-07-23T14:37:38;8.98;;;8.30;;
12846;SDS011;6492;48.128;8.320;2022-07-23T14:41:41;9.20;;;8.45;;
12846;SDS011;6492;48.128;8.320;2022-07-23T14:45:43;9.63;;;8.82;;
12846;SDS011;6492;48.128;8.320;2022-07-23T14:49:47;9.07;;;8.43;;
12846;SDS011;6492;48.128;8.320;2022-07-23T14:53:49;9.48;;;8.70;;
12846;SDS011;6492;48.128;8.320;2022-07-23T14:57:51;8.90;;;8.20;;
12846;SDS011;6492;48.128;8.320;2022-07-23T15:01:53;9.38;;;8.68;;
12846;SDS011;6492;48.128;8.320;2022-07-23T15:05:56;9.48;;;8.73;;
12846;SDS011;6492;48.128;8.320;2022-07-23T15:09:58;9.40;;;8.70;;
12846;SDS011;6492;48.128;8.320;2022-07-23T15:14:00;9.43;;;8.63;;
12846;SDS011;6492;48.128;8.320;2022-07-23T15:18:02;9.73;;;8.82;;
12846;SDS011;6492;48.128;8.320;2022-07-23T15:22:22;9.05;;;8.35;;
12846;SDS011;6492;48.128;8.320;2022-07-23T15:26:24;9.00;;;8.30;;
12846;SDS011;6492;48.128;8.320;2022-07-23T15:30:26;8.90;;;8.20;;
12846;SDS011;6492;48.128;8.320;2022-07-23T15:34:28;9.20;;;8.43;;
12846;SDS011;6492;48.128;8.320;2022-07-23T15:38:32;9.50;;;8.57;;
12846;SDS011;6492;48.128;8.320;2022-07-23T15:42:34;9.27;;;8.57;;
12846;SDS011;6492;48.128;8.320;2022-07-23T15:46:37;9.10;;;8.40;;
12846;SDS011;6492;48.128;8.320;2022-07-23T15:50:39;8.68;;;8.05;;
12846;SDS011;6492;48.128;8.320;2022-07-23T15:54:42;8.25;;;7.47;;
12846;SDS011;6492;48.128;8.320;2022-07-23T15:58:44;9.32;;;8.52;;
12846;SDS011;6492;48.128;8.320;2022-07-23T16:02:46;9.35;;;8.65;;
12846;SDS011;6492;48.128;8.320;2022-07-23T16:06:48;8.70;;;8.00;;
12846;SDS011;6492;48.128;8.320;2022-07-23T16:10:51;8.98;;;8.27;;
12846;SDS011;6492;48.128;8.320;2022-07-23T16:14:56;8.82;;;8.13;;
12846;SDS011;6492;48.128;8.320;2022-07-23T16:18:58;9.20;;;8.50;;
12846;SDS011;6492;48.128;8.320;2022-07-23T16:23:00;9.23;;;8.52;;
12846;SDS011;6492;48.128;8.320;2022-07-23T16:27:04;8.68;;;7.88;;
12846;SDS011;6492;48.128;8.320;2022-07-23T16:31:05;9.35;;;8.63;;
12846;SDS011;6492;48.128;8.320;2022-07-23T16:35:08;8.90;;;8.10;;
12846;SDS011;6492;48.128;8.320;2022-07-23T16:39:10;9.73;;;8.75;;
12846;SDS011;6492;48.128;8.320;2022-07-23T16:43:13;9.15;;;8.35;;
12846;SDS011;6492;48.128;8.320;2022-07-23T16:47:15;9.48;;;8.63;;
12846;SDS011;6492;48.128;8.320;2022-07-23T16:51:19;9.45;;;8.55;;
12846;SDS011;6492;48.128;8.320;2022-07-23T16:55:21;9.15;;;8.50;;
12846;SDS011;6492;48.128;8.320;2022-07-23T16:59:24;9.02;;;8.13;;
12846;SDS011;6492;48.128;8.320;2022-07-23T17:03:26;9.23;;;8.52;;
12846;SDS011;6492;48.128;8.320;2022-07-23T17:07:29;9.15;;;8.35;;
12846;SDS011;6492;48.128;8.320;2022-07-23T17:11:31;9.10;;;8.38;;
12846;SDS011;6492;48.128;8.320;2022-07-23T17:15:34;8.80;;;8.10;;
12846;SDS011;6492;48.128;8.320;2022-07-23T17:19:36;9.35;;;8.52;;
12846;SDS011;6492;48.128;8.320;2022-07-23T17:23:41;9.50;;;8.70;;
12846;SDS011;6492;48.128;8.320;2022-07-23T17:27:43;9.68;;;8.77;;
12846;SDS011;6492;48.128;8.320;2022-07-23T17:31:48;8.82;;;8.02;;
12846;SDS011;6492;48.128;8.320;2022-07-23T17:35:50;8.75;;;7.95;;
12846;SDS011;6492;48.128;8.320;2022-07-23T17:39:54;8.90;;;8.10;;
12846;SDS011;6492;48.128;8.320;2022-07-23T17:43:56;8.93;;;8.23;;
12846;SDS011;6492;48.128;8.320;2022-07-23T17:48:01;9.00;;;8.30;;
12846;SDS011;6492;48.128;8.320;2022-07-23T17:52:03;8.50;;;7.80;;
12846;SDS011;6492;48.128;8.320;2022-07-23T17:56:06;8.70;;;7.90;;
12846;SDS011;6492;48.128;8.320;2022-07-23T18:00:09;9.15;;;8.40;;
12846;SDS011;6492;48.128;8.320;2022-07-23T18:04:14;9.95;;;9.15;;
12846;SDS011;6492;48.128;8.320;2022-07-23T18:08:16;8.75;;;8.00;;
12846;SDS011;6492;48.128;8.320;2022-07-23T18:12:18;8.75;;;8.02;;
12846;SDS011;6492;48.128;8.320;2022-07-23T18:16:20;8.68;;;7.88;;
12846;SDS011;6492;48.128;8.320;2022-07-23T18:20:23;9.88;;;8.98;;
12846;SDS011;6492;48.128;8.320;2022-07-23T18:24:26;9.02;;;8.32;;
12846;SDS011;6492;48.128;8.320;2022-07-23T18:28:28;9.18;;;8.40;;
12846;SDS011;6492;48.128;8.320;2022-07-23T18:32:31;9.80;;;9.00;;
12846;SDS011;6492;48.128;8.320;2022-07-23T18:36:34;10.07;;;9.07;;
12846;SDS011;6492;48.128;8.320;2022-07-23T18:40:36;9.38;;;8.57;;
12846;SDS011;6492;48.128;8.320;2022-07-23T18:44:39;9.65;;;8.80;;
12846;SDS011;6492;48.128;8.320;2022-07-23T18:48:41;9.85;;;8.93;;
12846;SDS011;6492;48.128;8.320;2022-07-23T18:52:44;9.60;;;8.70;;
12846;SDS011;6492;48.128;8.320;2022-07-23T18:56:46;9.93;;;9.13;;
12846;SDS011;6492;48.128;8.320;2022-07-23T19:00:49;10.68;;;9.63;;
12846;SDS011;6492;48.128;8.320;2022-07-23T19:05:07;9.85;;;8.98;;
12846;SDS011;6492;48.128;8.320;2022-07-23T19:09:11;9.70;;;8.90;;
12846;SDS011;6492;48.128;8.320;2022-07-23T19:13:13;9.85;;;8.85;;
12846;SDS011;6492;48.128;8.320;2022-07-23T19:17:15;9.75;;;8.77;;
12846;SDS011;6492;48.128;8.320;2022-07-23T19:21:20;9.68;;;8.88;;
12846;SDS011;6492;48.128;8.320;2022-07-23T19:25:24;9.50;;;8.60;;
12846;SDS011;6492;48.128;8.320;2022-07-23T19:29:26;9.85;;;8.95;;
12846;SDS011;6492;48.128;8.320;2022-07-23T19:33:49;10.25;;;9.32;;
12846;SDS011;6492;48.128;8.320;2022-07-23T19:38:08;8.90;;;8.10;;
12846;SDS011;6492;48.128;8.320;2022-07-23T19:48:26;7.75;;;7.10;;
12846;SDS011;6492;48.128;8.320;2022-07-23T19:58:31;10.02;;;9.13;;
12846;SDS011;6492;48.128;8.320;2022-07-23T20:07:42;11.05;;;9.27;;
12846;SDS011;6492;48.128;8.320;2022-07-23T20:12:00;11.27;;;9.70;;
12846;SDS011;6492;48.128;8.320;2022-07-23T20:21:06;10.03;;;9.07;;
12846;SDS011;6492;48.128;8.320;2022-07-23T20:29:33;9.23;;;8.33;;
